Terminal Aerodrome Forecast
Issued by NWS

Home | Current Version | Previous Version | Graphics & Text | Print | Product List | Glossary Off
Versions: 1 2 3 4 5 6 7 8 9 10 11 12 13 14 15 16 17 18 19 20

889
FTUS43 KMPX 301730
TAFRWF
TAF
KRWF 301730Z 3018/0118 05014G21KT P6SM SCT040 OVC250
     FM302100 06012G20KT P6SM VCSH SCT025 BKN050 OVC250
     FM010300 04010KT P6SM SCT020 BKN040 OVC250
     FM011200 03008KT P6SM FEW040 SCT250=

USA.gov is the U.S. government's official web portal to all federal, state and local government web resources and services.